Xuxo — ECHX — position and weather

sailwx.info

Track history (hours):
 
Tides and Currents Weather Stations Pressure Air Temp Water Temp Dewpoint Dewpoint Depression Visibility Wind Speed Wind Dir Waves Ship Positions

Xuxo

Last reported at 2017-Aug-23 17:51 UTC. Time now 2017-Nov-18 06:59 UTC.
Position N 39°11' W 010°38'.
Warning: this ship's position is months out of date.

Length 30 m; draft 3.5 m.

Type: Fishing. MMSI: 224578000.

Date/timePositionNaut miles runAvg speedWind from/ knotsBaromVisibWave heightAir tempDewpointWater temp
2017-Aug-23 17:51N 39°11' W 010°38'3 7.8
2017-Aug-23 17:31N 39°08' W 010°40'4 7.8
2017-Aug-23 17:00N 39°05' W 010°42'4 8.0
2017-Aug-23 16:30N 39°01' W 010°44'4 8.0
2017-Aug-23 16:00N 38°58' W 010°46'5 7.9
2017-Aug-23 15:26N 38°53' W 010°49'6 8.0
2017-Aug-23 14:41N 38°48' W 010°53'5 7.8
2017-Aug-23 14:00N 38°43' W 010°56'4 7.6
2017-Aug-23 13:31N 38°40' W 010°58'4 7.7
2017-Aug-23 13:00N 38°37' W 011°01'6 7.5
2017-Aug-23 12:13N 38°32' W 011°04'1 7.4
2017-Aug-23 12:01N 38°30' W 011°05'5 7.5
2017-Aug-23 11:23N 38°26' W 011°08'41 7.5
2017-Aug-23 05:58N 37°49' W 011°30'7 7.6
2017-Aug-23 05:03N 37°43' W 011°34'23 7.4
2017-Aug-23 01:54N 37°23' W 011°50'4 7.6
2017-Aug-23 01:26N 37°20' W 011°52'3 7.6
2017-Aug-23 01:00N 37°17' W 011°54'5 7.8
2017-Aug-23 00:25N 37°13' W 011°57'4 7.8
2017-Aug-22 23:57N 37°10' W 011°59'4 7.7
2017-Aug-22 23:25N 37°06' W 012°01'135 8.3
2017-Aug-22 07:03N 35°12' W 013°29'0 8.4
2017-Aug-22 07:00N 35°11' W 013°30'14 8.3
2017-Aug-22 05:22N 34°59' W 013°37'4 8.4
2017-Aug-22 04:56N 34°56' W 013°39'6 8.5
2017-Aug-22 04:12N 34°50' W 013°42'2 8.5
2017-Aug-22 04:00N 34°49' W 013°43'4 8.4
2017-Aug-22 03:30N 34°45' W 013°45'6 8.4
2017-Aug-22 02:49N 34°40' W 013°48'3 8.5
2017-Aug-22 02:25N 34°37' W 013°50'4 8.4
2017-Aug-22 01:59N 34°33' W 013°52'5 8.4
2017-Aug-22 01:23N 34°29' W 013°55'3 8.6
2017-Aug-22 01:00N 34°26' W 013°56'37 8.6
2017-Aug-21 20:39N 33°53' W 014°19'1 8.3
2017-Aug-21 20:30N 33°52' W 014°19'4 8.1
2017-Aug-21 19:57N 33°48' W 014°22'4 8.1
2017-Aug-21 19:31N 33°45' W 014°24'7 8.0
2017-Aug-21 18:37N 33°39' W 014°28'6 8.0
2017-Aug-21 17:53N 33°34' W 014°32'6 7.9
2017-Aug-21 17:07N 33°29' W 014°35'1 7.7
2017-Aug-21 16:56N 33°27' W 014°36'4 7.7
2017-Aug-21 16:29N 33°24' W 014°38'4 7.6
2017-Aug-21 15:55N 33°20' W 014°40'3 7.7
2017-Aug-21 15:29N 33°17' W 014°42'4 7.8
2017-Aug-21 15:01N 33°14' W 014°44'4 7.9
2017-Aug-21 14:27N 33°10' W 014°46'7 8.0
2017-Aug-21 13:38N 33°05' W 014°50'13 8.0
2017-Aug-21 12:01N 32°54' W 014°59'0 8.2
2017-Aug-21 11:58N 32°54' W 014°59'4 8.1
2017-Aug-21 11:30N 32°50' W 015°02'5 8.1
2017-Aug-21 10:57N 32°47' W 015°05'4 8.0
2017-Aug-21 10:30N 32°44' W 015°07'4 7.9
2017-Aug-21 10:00N 32°40' W 015°09'4 7.8
2017-Aug-21 09:26N 32°37' W 015°12'4 7.9
2017-Aug-21 08:56N 32°33' W 015°15'4 7.9
2017-Aug-21 08:25N 32°30' W 015°17'9 8.1
2017-Aug-21 07:19N 32°22' W 015°22'3 8.2
2017-Aug-21 07:00N 32°20' W 015°23'5 8.0
2017-Aug-21 06:21N 32°15' W 015°26'3 7.9
2017-Aug-21 05:56N 32°12' W 015°27'7 7.8
2017-Aug-21 05:01N 32°05' W 015°30'0 7.8
2017-Aug-21 05:00N 32°05' W 015°30'4 8.0
2017-Aug-21 04:31N 32°01' W 015°32'5 7.8
2017-Aug-21 03:51N 31°56' W 015°34'3 7.7
2017-Aug-21 03:25N 31°53' W 015°36'4 7.8
2017-Aug-21 02:51N 31°49' W 015°38'3 7.9
2017-Aug-21 02:25N 31°46' W 015°39'4 7.8
2017-Aug-21 01:51N 31°42' W 015°41'6 7.7
2017-Aug-21 01:05N 31°36' W 015°44'1 7.9
2017-Aug-21 00:58N 31°36' W 015°45'5 7.7
2017-Aug-21 00:22N 31°32' W 015°47'5 7.7
2017-Aug-20 23:46N 31°27' W 015°50'4 7.7
2017-Aug-20 23:18N 31°24' W 015°51'2 7.7
2017-Aug-20 23:00N 31°22' W 015°53'4 7.6
2017-Aug-20 22:28N 31°19' W 015°55'4 7.6
2017-Aug-20 21:59N 31°16' W 015°57'4 7.6
2017-Aug-20 21:29N 31°12' W 015°59'7 7.6
2017-Aug-20 20:31N 31°06' W 016°03'2 7.4
2017-Aug-20 20:15N 31°04' W 016°05'2 7.5
2017-Aug-20 20:00N 31°02' W 016°06'4 7.4
2017-Aug-20 19:29N 30°59' W 016°08'36 6.9
2017-Aug-20 14:19N 30°28' W 016°28'5 6.8
2017-Aug-20 13:38N 30°24' W 016°30'1 6.8
2017-Aug-20 13:25N 30°22' W 016°31'5 6.9
2017-Aug-20 12:44N 30°18' W 016°34'271 6.5
2017-Aug-18 19:15N 26°29' W 019°17'27 7.7
2017-Aug-18 15:44N 26°06' W 019°33'2 8.0
2017-Aug-18 15:29N 26°04' W 019°35'4 7.8
2017-Aug-18 14:59N 26°01' W 019°37'4 7.7
2017-Aug-18 14:30N 25°58' W 019°39'17 7.7
2017-Aug-18 12:19N 25°43' W 019°49'5 7.9
2017-Aug-18 11:44N 25°39' W 019°51'5 8.0
2017-Aug-18 11:08N 25°35' W 019°54'2 7.8
2017-Aug-18 10:51N 25°33' W 019°55'3 7.9
2017-Aug-18 10:30N 25°31' W 019°57'  
Track history (hours):
 
Tides and Currents Weather Stations Pressure Air Temp Water Temp Dewpoint Dewpoint Depression Visibility Wind Speed Wind Dir Waves Ship Positions

Xuxo

Last reported at 2017-Aug-23 17:51 UTC. Time now 2017-Nov-18 06:59 UTC.
Position N 39°11' W 010°38'.
Warning: this ship's position is months out of date.

Length 30 m; draft 3.5 m.

Type: Fishing. MMSI: 224578000.

Date/timePositionNaut miles runAvg speedWind from/ knotsBaromVisibWave heightAir tempDewpointWater temp
2017-Aug-23 17:51N 39°11' W 010°38'3 7.8
2017-Aug-23 17:31N 39°08' W 010°40'4 7.8
2017-Aug-23 17:00N 39°05' W 010°42'4 8.0
2017-Aug-23 16:30N 39°01' W 010°44'4 8.0
2017-Aug-23 16:00N 38°58' W 010°46'5 7.9
2017-Aug-23 15:26N 38°53' W 010°49'6 8.0
2017-Aug-23 14:41N 38°48' W 010°53'5 7.8
2017-Aug-23 14:00N 38°43' W 010°56'4 7.6
2017-Aug-23 13:31N 38°40' W 010°58'4 7.7
2017-Aug-23 13:00N 38°37' W 011°01'6 7.5
2017-Aug-23 12:13N 38°32' W 011°04'1 7.4
2017-Aug-23 12:01N 38°30' W 011°05'5 7.5
2017-Aug-23 11:23N 38°26' W 011°08'41 7.5
2017-Aug-23 05:58N 37°49' W 011°30'7 7.6
2017-Aug-23 05:03N 37°43' W 011°34'23 7.4
2017-Aug-23 01:54N 37°23' W 011°50'4 7.6
2017-Aug-23 01:26N 37°20' W 011°52'3 7.6
2017-Aug-23 01:00N 37°17' W 011°54'5 7.8
2017-Aug-23 00:25N 37°13' W 011°57'4 7.8
2017-Aug-22 23:57N 37°10' W 011°59'4 7.7
2017-Aug-22 23:25N 37°06' W 012°01'135 8.3
2017-Aug-22 07:03N 35°12' W 013°29'0 8.4
2017-Aug-22 07:00N 35°11' W 013°30'14 8.3
2017-Aug-22 05:22N 34°59' W 013°37'4 8.4
2017-Aug-22 04:56N 34°56' W 013°39'6 8.5
2017-Aug-22 04:12N 34°50' W 013°42'2 8.5
2017-Aug-22 04:00N 34°49' W 013°43'4 8.4
2017-Aug-22 03:30N 34°45' W 013°45'6 8.4
2017-Aug-22 02:49N 34°40' W 013°48'3 8.5
2017-Aug-22 02:25N 34°37' W 013°50'4 8.4
2017-Aug-22 01:59N 34°33' W 013°52'5 8.4
2017-Aug-22 01:23N 34°29' W 013°55'3 8.6
2017-Aug-22 01:00N 34°26' W 013°56'37 8.6
2017-Aug-21 20:39N 33°53' W 014°19'1 8.3
2017-Aug-21 20:30N 33°52' W 014°19'4 8.1
2017-Aug-21 19:57N 33°48' W 014°22'4 8.1
2017-Aug-21 19:31N 33°45' W 014°24'7 8.0
2017-Aug-21 18:37N 33°39' W 014°28'6 8.0
2017-Aug-21 17:53N 33°34' W 014°32'6 7.9
2017-Aug-21 17:07N 33°29' W 014°35'1 7.7
2017-Aug-21 16:56N 33°27' W 014°36'4 7.7
2017-Aug-21 16:29N 33°24' W 014°38'4 7.6
2017-Aug-21 15:55N 33°20' W 014°40'3 7.7
2017-Aug-21 15:29N 33°17' W 014°42'4 7.8
2017-Aug-21 15:01N 33°14' W 014°44'4 7.9
2017-Aug-21 14:27N 33°10' W 014°46'7 8.0
2017-Aug-21 13:38N 33°05' W 014°50'13 8.0
2017-Aug-21 12:01N 32°54' W 014°59'0 8.2
2017-Aug-21 11:58N 32°54' W 014°59'4 8.1
2017-Aug-21 11:30N 32°50' W 015°02'5 8.1
2017-Aug-21 10:57N 32°47' W 015°05'4 8.0
2017-Aug-21 10:30N 32°44' W 015°07'4 7.9
2017-Aug-21 10:00N 32°40' W 015°09'4 7.8
2017-Aug-21 09:26N 32°37' W 015°12'4 7.9
2017-Aug-21 08:56N 32°33' W 015°15'4 7.9
2017-Aug-21 08:25N 32°30' W 015°17'9 8.1
2017-Aug-21 07:19N 32°22' W 015°22'3 8.2
2017-Aug-21 07:00N 32°20' W 015°23'5 8.0
2017-Aug-21 06:21N 32°15' W 015°26'3 7.9
2017-Aug-21 05:56N 32°12' W 015°27'7 7.8
2017-Aug-21 05:01N 32°05' W 015°30'0 7.8
2017-Aug-21 05:00N 32°05' W 015°30'4 8.0
2017-Aug-21 04:31N 32°01' W 015°32'5 7.8
2017-Aug-21 03:51N 31°56' W 015°34'3 7.7
2017-Aug-21 03:25N 31°53' W 015°36'4 7.8
2017-Aug-21 02:51N 31°49' W 015°38'3 7.9
2017-Aug-21 02:25N 31°46' W 015°39'4 7.8
2017-Aug-21 01:51N 31°42' W 015°41'6 7.7
2017-Aug-21 01:05N 31°36' W 015°44'1 7.9
2017-Aug-21 00:58N 31°36' W 015°45'5 7.7
2017-Aug-21 00:22N 31°32' W 015°47'5 7.7
2017-Aug-20 23:46N 31°27' W 015°50'4 7.7
2017-Aug-20 23:18N 31°24' W 015°51'2 7.7
2017-Aug-20 23:00N 31°22' W 015°53'4 7.6
2017-Aug-20 22:28N 31°19' W 015°55'4 7.6
2017-Aug-20 21:59N 31°16' W 015°57'4 7.6
2017-Aug-20 21:29N 31°12' W 015°59'7 7.6
2017-Aug-20 20:31N 31°06' W 016°03'2 7.4
2017-Aug-20 20:15N 31°04' W 016°05'2 7.5
2017-Aug-20 20:00N 31°02' W 016°06'4 7.4
2017-Aug-20 19:29N 30°59' W 016°08'36 6.9
2017-Aug-20 14:19N 30°28' W 016°28'5 6.8
2017-Aug-20 13:38N 30°24' W 016°30'1 6.8
2017-Aug-20 13:25N 30°22' W 016°31'5 6.9
2017-Aug-20 12:44N 30°18' W 016°34'271 6.5
2017-Aug-18 19:15N 26°29' W 019°17'27 7.7
2017-Aug-18 15:44N 26°06' W 019°33'2 8.0
2017-Aug-18 15:29N 26°04' W 019°35'4 7.8
2017-Aug-18 14:59N 26°01' W 019°37'4 7.7
2017-Aug-18 14:30N 25°58' W 019°39'17 7.7
2017-Aug-18 12:19N 25°43' W 019°49'5 7.9
2017-Aug-18 11:44N 25°39' W 019°51'5 8.0
2017-Aug-18 11:08N 25°35' W 019°54'2 7.8
2017-Aug-18 10:51N 25°33' W 019°55'3 7.9
2017-Aug-18 10:30N 25°31' W 019°57'  

Dump ship's entire track history